sensor_id;sensor_type;location;lat;lon;timestamp;P1;durP1;ratioP1;P2;durP2;ratioP2
52854;SDS011;38719;51.418;7.286;2022-07-06T00:00:24;3.97;;;2.33;;
52854;SDS011;38719;51.418;7.286;2022-07-06T00:02:52;5.38;;;2.70;;
52854;SDS011;38719;51.418;7.286;2022-07-06T00:05:20;5.00;;;2.60;;
52854;SDS011;38719;51.418;7.286;2022-07-06T00:07:47;4.20;;;2.30;;
52854;SDS011;38719;51.418;7.286;2022-07-06T00:10:15;4.05;;;2.70;;
52854;SDS011;38719;51.418;7.286;2022-07-06T00:12:42;9.18;;;2.65;;
52854;SDS011;38719;51.418;7.286;2022-07-06T00:15:10;7.65;;;2.75;;
52854;SDS011;38719;51.418;7.286;2022-07-06T00:17:39;3.97;;;2.40;;
52854;SDS011;38719;51.418;7.286;2022-07-06T00:20:07;6.32;;;2.60;;
52854;SDS011;38719;51.418;7.286;2022-07-06T00:22:35;5.78;;;2.72;;
52854;SDS011;38719;51.418;7.286;2022-07-06T00:25:03;6.82;;;2.92;;
52854;SDS011;38719;51.418;7.286;2022-07-06T00:27:31;7.38;;;3.42;;
52854;SDS011;38719;51.418;7.286;2022-07-06T00:29:58;6.75;;;3.03;;
52854;SDS011;38719;51.418;7.286;2022-07-06T00:32:26;4.97;;;2.83;;
52854;SDS011;38719;51.418;7.286;2022-07-06T00:34:55;6.90;;;3.10;;
52854;SDS011;38719;51.418;7.286;2022-07-06T00:37:23;6.85;;;2.80;;
52854;SDS011;38719;51.418;7.286;2022-07-06T00:39:50;7.80;;;3.13;;
52854;SDS011;38719;51.418;7.286;2022-07-06T00:42:18;5.82;;;3.03;;
52854;SDS011;38719;51.418;7.286;2022-07-06T00:44:45;5.93;;;2.80;;
52854;SDS011;38719;51.418;7.286;2022-07-06T00:47:13;6.90;;;2.90;;
52854;SDS011;38719;51.418;7.286;2022-07-06T00:49:40;3.35;;;3.05;;
52854;SDS011;38719;51.418;7.286;2022-07-06T00:52:27;5.18;;;2.90;;
52854;SDS011;38719;51.418;7.286;2022-07-06T00:54:55;4.40;;;2.78;;
52854;SDS011;38719;51.418;7.286;2022-07-06T00:57:22;4.85;;;2.90;;
52854;SDS011;38719;51.418;7.286;2022-07-06T00:59:50;5.70;;;2.70;;
52854;SDS011;38719;51.418;7.286;2022-07-06T01:02:18;5.63;;;2.70;;
52854;SDS011;38719;51.418;7.286;2022-07-06T01:04:46;3.95;;;2.80;;
52854;SDS011;38719;51.418;7.286;2022-07-06T01:07:14;8.52;;;2.88;;
52854;SDS011;38719;51.418;7.286;2022-07-06T01:09:43;6.00;;;2.90;;
52854;SDS011;38719;51.418;7.286;2022-07-06T01:12:11;7.38;;;3.08;;
52854;SDS011;38719;51.418;7.286;2022-07-06T01:14:38;7.18;;;3.22;;
52854;SDS011;38719;51.418;7.286;2022-07-06T01:17:06;6.03;;;2.95;;
52854;SDS011;38719;51.418;7.286;2022-07-06T01:19:34;4.55;;;2.85;;
52854;SDS011;38719;51.418;7.286;2022-07-06T01:22:03;7.65;;;3.22;;
52854;SDS011;38719;51.418;7.286;2022-07-06T01:24:31;6.32;;;2.85;;
52854;SDS011;38719;51.418;7.286;2022-07-06T01:27:01;4.38;;;2.90;;
52854;SDS011;38719;51.418;7.286;2022-07-06T01:29:30;6.38;;;2.95;;
52854;SDS011;38719;51.418;7.286;2022-07-06T01:31:59;4.78;;;2.95;;
52854;SDS011;38719;51.418;7.286;2022-07-06T01:34:27;5.38;;;2.80;;
52854;SDS011;38719;51.418;7.286;2022-07-06T01:40:43;3.33;;;2.50;;
52854;SDS011;38719;51.418;7.286;2022-07-06T01:43:11;4.45;;;2.53;;
52854;SDS011;38719;51.418;7.286;2022-07-06T01:45:38;4.82;;;2.63;;
52854;SDS011;38719;51.418;7.286;2022-07-06T01:48:06;6.13;;;2.95;;
52854;SDS011;38719;51.418;7.286;2022-07-06T01:50:34;3.63;;;2.55;;
52854;SDS011;38719;51.418;7.286;2022-07-06T01:53:02;3.63;;;2.50;;
52854;SDS011;38719;51.418;7.286;2022-07-06T01:55:29;4.38;;;2.60;;
52854;SDS011;38719;51.418;7.286;2022-07-06T01:57:58;8.15;;;2.55;;
52854;SDS011;38719;51.418;7.286;2022-07-06T02:00:25;5.82;;;2.40;;
52854;SDS011;38719;51.418;7.286;2022-07-06T02:02:53;5.40;;;2.40;;
52854;SDS011;38719;51.418;7.286;2022-07-06T02:05:20;4.93;;;2.40;;
52854;SDS011;38719;51.418;7.286;2022-07-06T02:07:48;5.05;;;2.53;;
52854;SDS011;38719;51.418;7.286;2022-07-06T02:10:16;2.80;;;2.28;;
52854;SDS011;38719;51.418;7.286;2022-07-06T02:12:43;4.35;;;2.42;;
52854;SDS011;38719;51.418;7.286;2022-07-06T02:15:12;3.70;;;2.47;;
52854;SDS011;38719;51.418;7.286;2022-07-06T02:17:40;5.40;;;2.63;;
52854;SDS011;38719;51.418;7.286;2022-07-06T02:20:08;3.35;;;2.80;;
52854;SDS011;38719;51.418;7.286;2022-07-06T02:22:36;7.15;;;2.72;;
52854;SDS011;38719;51.418;7.286;2022-07-06T02:25:04;3.28;;;2.60;;
52854;SDS011;38719;51.418;7.286;2022-07-06T02:27:32;5.30;;;2.67;;
52854;SDS011;38719;51.418;7.286;2022-07-06T02:30:00;4.05;;;2.92;;
52854;SDS011;38719;51.418;7.286;2022-07-06T02:32:29;5.70;;;3.30;;
52854;SDS011;38719;51.418;7.286;2022-07-06T02:34:56;5.05;;;2.97;;
52854;SDS011;38719;51.418;7.286;2022-07-06T02:37:25;6.22;;;3.05;;
52854;SDS011;38719;51.418;7.286;2022-07-06T02:39:52;4.68;;;2.58;;
52854;SDS011;38719;51.418;7.286;2022-07-06T02:42:20;7.10;;;2.92;;
52854;SDS011;38719;51.418;7.286;2022-07-06T02:44:47;4.78;;;2.85;;
52854;SDS011;38719;51.418;7.286;2022-07-06T02:47:15;6.10;;;3.05;;
52854;SDS011;38719;51.418;7.286;2022-07-06T02:49:43;5.10;;;3.00;;
52854;SDS011;38719;51.418;7.286;2022-07-06T02:52:11;4.63;;;2.90;;
52854;SDS011;38719;51.418;7.286;2022-07-06T02:54:39;3.67;;;3.13;;
52854;SDS011;38719;51.418;7.286;2022-07-06T02:57:06;5.40;;;2.60;;
52854;SDS011;38719;51.418;7.286;2022-07-06T02:59:34;5.30;;;2.60;;
52854;SDS011;38719;51.418;7.286;2022-07-06T03:02:02;3.72;;;2.70;;
52854;SDS011;38719;51.418;7.286;2022-07-06T03:04:30;7.53;;;3.00;;
52854;SDS011;38719;51.418;7.286;2022-07-06T03:06:59;4.47;;;2.90;;
52854;SDS011;38719;51.418;7.286;2022-07-06T03:09:27;5.18;;;3.08;;
52854;SDS011;38719;51.418;7.286;2022-07-06T03:11:54;5.53;;;3.13;;
52854;SDS011;38719;51.418;7.286;2022-07-06T03:14:22;5.55;;;2.80;;
52854;SDS011;38719;51.418;7.286;2022-07-06T03:16:51;5.75;;;3.00;;
52854;SDS011;38719;51.418;7.286;2022-07-06T03:19:19;4.88;;;3.13;;
52854;SDS011;38719;51.418;7.286;2022-07-06T03:21:46;5.90;;;2.80;;
52854;SDS011;38719;51.418;7.286;2022-07-06T03:24:15;3.85;;;2.80;;
52854;SDS011;38719;51.418;7.286;2022-07-06T03:26:43;8.23;;;2.88;;
52854;SDS011;38719;51.418;7.286;2022-07-06T03:29:10;3.47;;;3.13;;
52854;SDS011;38719;51.418;7.286;2022-07-06T03:31:38;4.32;;;2.80;;
52854;SDS011;38719;51.418;7.286;2022-07-06T03:34:05;5.72;;;2.97;;
52854;SDS011;38719;51.418;7.286;2022-07-06T03:36:33;8.73;;;2.80;;
52854;SDS011;38719;51.418;7.286;2022-07-06T03:39:04;5.93;;;2.97;;
52854;SDS011;38719;51.418;7.286;2022-07-06T03:41:33;6.75;;;3.03;;
52854;SDS011;38719;51.418;7.286;2022-07-06T03:44:01;3.55;;;2.80;;
52854;SDS011;38719;51.418;7.286;2022-07-06T03:46:28;8.07;;;3.00;;
52854;SDS011;38719;51.418;7.286;2022-07-06T03:48:56;3.88;;;2.70;;
52854;SDS011;38719;51.418;7.286;2022-07-06T03:51:24;5.80;;;2.97;;
52854;SDS011;38719;51.418;7.286;2022-07-06T03:53:51;5.47;;;2.83;;
52854;SDS011;38719;51.418;7.286;2022-07-06T03:56:19;6.47;;;2.92;;
52854;SDS011;38719;51.418;7.286;2022-07-06T03:58:57;7.70;;;3.05;;
52854;SDS011;38719;51.418;7.286;2022-07-06T04:01:27;7.53;;;2.92;;
52854;SDS011;38719;51.418;7.286;2022-07-06T04:03:56;9.27;;;2.88;;
52854;SDS011;38719;51.418;7.286;2022-07-06T04:06:23;9.73;;;3.78;;
52854;SDS011;38719;51.418;7.286;2022-07-06T04:08:51;10.02;;;3.00;;
52854;SDS011;38719;51.418;7.286;2022-07-06T04:11:19;5.90;;;2.80;;
52854;SDS011;38719;51.418;7.286;2022-07-06T04:13:46;8.13;;;3.03;;
52854;SDS011;38719;51.418;7.286;2022-07-06T04:16:15;4.70;;;2.85;;
52854;SDS011;38719;51.418;7.286;2022-07-06T04:18:43;8.50;;;3.10;;
52854;SDS011;38719;51.418;7.286;2022-07-06T04:21:10;7.47;;;3.53;;
52854;SDS011;38719;51.418;7.286;2022-07-06T04:23:38;5.78;;;4.45;;
52854;SDS011;38719;51.418;7.286;2022-07-06T04:26:05;5.05;;;2.95;;
52854;SDS011;38719;51.418;7.286;2022-07-06T04:28:33;8.90;;;2.97;;
52854;SDS011;38719;51.418;7.286;2022-07-06T04:31:01;5.25;;;3.40;;
52854;SDS011;38719;51.418;7.286;2022-07-06T04:33:29;6.72;;;3.38;;
52854;SDS011;38719;51.418;7.286;2022-07-06T04:35:57;6.65;;;2.90;;
52854;SDS011;38719;51.418;7.286;2022-07-06T04:38:24;7.28;;;2.80;;
52854;SDS011;38719;51.418;7.286;2022-07-06T04:40:52;7.20;;;3.17;;
52854;SDS011;38719;51.418;7.286;2022-07-06T04:43:19;4.78;;;3.20;;
52854;SDS011;38719;51.418;7.286;2022-07-06T04:45:47;6.25;;;2.97;;
52854;SDS011;38719;51.418;7.286;2022-07-06T04:48:14;7.30;;;4.20;;
52854;SDS011;38719;51.418;7.286;2022-07-06T04:50:43;8.70;;;3.42;;
52854;SDS011;38719;51.418;7.286;2022-07-06T04:53:11;11.35;;;4.07;;
52854;SDS011;38719;51.418;7.286;2022-07-06T04:55:38;6.60;;;3.40;;
52854;SDS011;38719;51.418;7.286;2022-07-06T04:58:06;11.10;;;4.13;;
52854;SDS011;38719;51.418;7.286;2022-07-06T05:00:34;5.82;;;3.40;;
52854;SDS011;38719;51.418;7.286;2022-07-06T05:03:01;12.55;;;3.75;;
52854;SDS011;38719;51.418;7.286;2022-07-06T05:05:29;6.40;;;3.60;;
52854;SDS011;38719;51.418;7.286;2022-07-06T05:07:58;8.95;;;4.20;;
52854;SDS011;38719;51.418;7.286;2022-07-06T05:10:25;8.40;;;3.95;;
52854;SDS011;38719;51.418;7.286;2022-07-06T05:12:53;7.28;;;4.07;;
52854;SDS011;38719;51.418;7.286;2022-07-06T05:15:22;8.25;;;4.10;;
52854;SDS011;38719;51.418;7.286;2022-07-06T05:17:49;13.00;;;3.78;;
52854;SDS011;38719;51.418;7.286;2022-07-06T05:20:17;10.48;;;4.22;;
52854;SDS011;38719;51.418;7.286;2022-07-06T05:22:45;8.43;;;3.75;;
52854;SDS011;38719;51.418;7.286;2022-07-06T05:25:13;11.18;;;4.13;;
52854;SDS011;38719;51.418;7.286;2022-07-06T05:27:41;8.43;;;4.07;;
52854;SDS011;38719;51.418;7.286;2022-07-06T05:30:09;10.30;;;4.35;;
52854;SDS011;38719;51.418;7.286;2022-07-06T05:32:37;10.65;;;3.92;;
52854;SDS011;38719;51.418;7.286;2022-07-06T05:35:05;9.07;;;3.67;;
52854;SDS011;38719;51.418;7.286;2022-07-06T05:37:53;6.85;;;3.80;;
52854;SDS011;38719;51.418;7.286;2022-07-06T05:40:22;9.18;;;4.18;;
52854;SDS011;38719;51.418;7.286;2022-07-06T05:42:49;9.90;;;4.10;;
52854;SDS011;38719;51.418;7.286;2022-07-06T05:45:17;13.68;;;3.60;;
52854;SDS011;38719;51.418;7.286;2022-07-06T05:47:44;7.95;;;3.55;;
52854;SDS011;38719;51.418;7.286;2022-07-06T05:50:29;12.10;;;3.85;;
52854;SDS011;38719;51.418;7.286;2022-07-06T05:52:57;13.75;;;3.65;;
52854;SDS011;38719;51.418;7.286;2022-07-06T05:55:39;10.07;;;3.75;;
52854;SDS011;38719;51.418;7.286;2022-07-06T05:58:07;10.45;;;3.40;;
52854;SDS011;38719;51.418;7.286;2022-07-06T06:00:34;10.18;;;3.38;;
52854;SDS011;38719;51.418;7.286;2022-07-06T06:03:02;6.63;;;3.40;;
52854;SDS011;38719;51.418;7.286;2022-07-06T06:05:29;10.05;;;3.17;;
52854;SDS011;38719;51.418;7.286;2022-07-06T06:07:57;10.02;;;3.30;;
52854;SDS011;38719;51.418;7.286;2022-07-06T06:10:24;5.88;;;2.90;;
52854;SDS011;38719;51.418;7.286;2022-07-06T06:12:53;9.65;;;3.38;;
52854;SDS011;38719;51.418;7.286;2022-07-06T06:15:21;7.53;;;4.00;;
52854;SDS011;38719;51.418;7.286;2022-07-06T06:17:48;5.95;;;3.10;;
52854;SDS011;38719;51.418;7.286;2022-07-06T06:20:16;7.40;;;3.15;;
52854;SDS011;38719;51.418;7.286;2022-07-06T06:22:44;7.93;;;2.60;;
52854;SDS011;38719;51.418;7.286;2022-07-06T06:25:13;7.13;;;2.90;;
52854;SDS011;38719;51.418;7.286;2022-07-06T06:27:41;8.95;;;2.80;;
52854;SDS011;38719;51.418;7.286;2022-07-06T06:30:11;5.75;;;2.70;;
52854;SDS011;38719;51.418;7.286;2022-07-06T06:32:39;7.68;;;2.70;;
52854;SDS011;38719;51.418;7.286;2022-07-06T06:35:08;5.63;;;2.25;;
52854;SDS011;38719;51.418;7.286;2022-07-06T06:37:35;5.88;;;2.63;;
52854;SDS011;38719;51.418;7.286;2022-07-06T06:40:04;2.88;;;2.05;;
52854;SDS011;38719;51.418;7.286;2022-07-06T06:42:35;5.70;;;1.95;;
52854;SDS011;38719;51.418;7.286;2022-07-06T06:45:03;5.20;;;2.00;;
52854;SDS011;38719;51.418;7.286;2022-07-06T06:47:32;5.25;;;2.25;;
52854;SDS011;38719;51.418;7.286;2022-07-06T06:50:00;4.07;;;2.20;;
52854;SDS011;38719;51.418;7.286;2022-07-06T06:52:28;6.55;;;1.88;;
52854;SDS011;38719;51.418;7.286;2022-07-06T06:55:06;8.52;;;2.20;;
52854;SDS011;38719;51.418;7.286;2022-07-06T06:57:34;2.22;;;1.92;;
52854;SDS011;38719;51.418;7.286;2022-07-06T07:00:02;3.35;;;1.95;;
52854;SDS011;38719;51.418;7.286;2022-07-06T07:02:30;7.82;;;2.10;;
52854;SDS011;38719;51.418;7.286;2022-07-06T07:04:59;5.57;;;2.05;;
52854;SDS011;38719;51.418;7.286;2022-07-06T07:07:27;5.32;;;1.85;;
52854;SDS011;38719;51.418;7.286;2022-07-06T07:09:54;6.22;;;2.35;;
52854;SDS011;38719;51.418;7.286;2022-07-06T07:12:22;6.20;;;2.67;;
52854;SDS011;38719;51.418;7.286;2022-07-06T07:14:49;4.13;;;1.60;;
52854;SDS011;38719;51.418;7.286;2022-07-06T07:17:17;11.25;;;1.95;;
52854;SDS011;38719;51.418;7.286;2022-07-06T07:19:44;3.70;;;1.90;;
52854;SDS011;38719;51.418;7.286;2022-07-06T07:22:13;4.70;;;1.58;;
52854;SDS011;38719;51.418;7.286;2022-07-06T07:24:41;3.75;;;1.83;;
52854;SDS011;38719;51.418;7.286;2022-07-06T07:27:08;4.65;;;1.90;;
52854;SDS011;38719;51.418;7.286;2022-07-06T07:29:36;7.65;;;1.75;;
52854;SDS011;38719;51.418;7.286;2022-07-06T07:32:04;4.28;;;1.90;;
52854;SDS011;38719;51.418;7.286;2022-07-06T07:34:31;4.63;;;1.77;;
52854;SDS011;38719;51.418;7.286;2022-07-06T07:36:59;4.95;;;1.52;;
52854;SDS011;38719;51.418;7.286;2022-07-06T07:39:28;4.85;;;1.63;;
52854;SDS011;38719;51.418;7.286;2022-07-06T07:41:55;6.00;;;1.73;;
52854;SDS011;38719;51.418;7.286;2022-07-06T07:44:23;3.30;;;1.58;;
52854;SDS011;38719;51.418;7.286;2022-07-06T07:46:53;3.45;;;1.73;;
52854;SDS011;38719;51.418;7.286;2022-07-06T07:49:21;4.90;;;1.63;;
52854;SDS011;38719;51.418;7.286;2022-07-06T07:51:49;5.97;;;1.77;;
52854;SDS011;38719;51.418;7.286;2022-07-06T07:54:16;6.07;;;1.85;;
52854;SDS011;38719;51.418;7.286;2022-07-06T07:56:45;3.53;;;1.70;;
52854;SDS011;38719;51.418;7.286;2022-07-06T07:59:12;2.90;;;1.65;;
52854;SDS011;38719;51.418;7.286;2022-07-06T08:01:40;6.20;;;1.60;;
52854;SDS011;38719;51.418;7.286;2022-07-06T08:04:08;1.40;;;1.30;;
52854;SDS011;38719;51.418;7.286;2022-07-06T08:06:35;5.05;;;1.90;;
52854;SDS011;38719;51.418;7.286;2022-07-06T08:09:03;5.13;;;1.50;;
52854;SDS011;38719;51.418;7.286;2022-07-06T08:11:33;2.67;;;1.65;;
52854;SDS011;38719;51.418;7.286;2022-07-06T08:14:02;3.17;;;1.60;;
52854;SDS011;38719;51.418;7.286;2022-07-06T08:16:30;3.83;;;1.60;;
52854;SDS011;38719;51.418;7.286;2022-07-06T08:18:58;5.60;;;1.83;;
52854;SDS011;38719;51.418;7.286;2022-07-06T08:21:33;7.18;;;2.20;;
52854;SDS011;38719;51.418;7.286;2022-07-06T08:24:01;4.93;;;1.50;;
52854;SDS011;38719;51.418;7.286;2022-07-06T08:26:29;3.13;;;1.60;;
52854;SDS011;38719;51.418;7.286;2022-07-06T08:28:56;5.82;;;1.75;;
52854;SDS011;38719;51.418;7.286;2022-07-06T08:31:26;16.45;;;2.08;;
52854;SDS011;38719;51.418;7.286;2022-07-06T08:34:14;7.70;;;1.77;;
52854;SDS011;38719;51.418;7.286;2022-07-06T08:36:41;4.88;;;1.77;;
52854;SDS011;38719;51.418;7.286;2022-07-06T08:39:09;3.63;;;1.83;;
52854;SDS011;38719;51.418;7.286;2022-07-06T08:41:36;9.23;;;2.30;;
52854;SDS011;38719;51.418;7.286;2022-07-06T08:44:07;6.53;;;1.90;;
52854;SDS011;38719;51.418;7.286;2022-07-06T08:46:38;8.90;;;1.90;;
52854;SDS011;38719;51.418;7.286;2022-07-06T08:49:07;1.70;;;1.50;;
52854;SDS011;38719;51.418;7.286;2022-07-06T08:51:35;2.42;;;1.55;;
52854;SDS011;38719;51.418;7.286;2022-07-06T08:54:03;4.10;;;1.45;;
52854;SDS011;38719;51.418;7.286;2022-07-06T08:56:31;4.10;;;1.88;;
52854;SDS011;38719;51.418;7.286;2022-07-06T08:58:59;6.95;;;1.67;;
52854;SDS011;38719;51.418;7.286;2022-07-06T09:01:27;4.75;;;2.05;;
52854;SDS011;38719;51.418;7.286;2022-07-06T09:03:56;3.85;;;1.42;;
52854;SDS011;38719;51.418;7.286;2022-07-06T09:06:26;2.78;;;1.70;;
52854;SDS011;38719;51.418;7.286;2022-07-06T09:08:55;3.03;;;1.40;;
52854;SDS011;38719;51.418;7.286;2022-07-06T09:11:24;6.63;;;1.83;;
52854;SDS011;38719;51.418;7.286;2022-07-06T09:13:52;5.78;;;1.85;;
52854;SDS011;38719;51.418;7.286;2022-07-06T09:16:24;6.15;;;1.77;;
52854;SDS011;38719;51.418;7.286;2022-07-06T09:19:05;6.32;;;1.40;;
52854;SDS011;38719;51.418;7.286;2022-07-06T09:21:33;6.30;;;1.92;;
52854;SDS011;38719;51.418;7.286;2022-07-06T09:24:05;3.35;;;1.48;;
52854;SDS011;38719;51.418;7.286;2022-07-06T09:26:34;3.28;;;1.42;;
52854;SDS011;38719;51.418;7.286;2022-07-06T09:29:02;4.20;;;1.80;;
52854;SDS011;38719;51.418;7.286;2022-07-06T09:31:31;1.90;;;1.30;;
52854;SDS011;38719;51.418;7.286;2022-07-06T09:34:00;2.88;;;1.40;;
52854;SDS011;38719;51.418;7.286;2022-07-06T09:36:40;2.05;;;1.40;;
52854;SDS011;38719;51.418;7.286;2022-07-06T09:39:20;2.13;;;1.60;;
52854;SDS011;38719;51.418;7.286;2022-07-06T09:41:50;2.67;;;1.55;;
52854;SDS011;38719;51.418;7.286;2022-07-06T09:44:22;2.25;;;1.42;;
52854;SDS011;38719;51.418;7.286;2022-07-06T09:46:52;3.00;;;1.25;;
52854;SDS011;38719;51.418;7.286;2022-07-06T09:49:22;3.42;;;1.38;;
52854;SDS011;38719;51.418;7.286;2022-07-06T09:51:52;2.88;;;1.80;;
52854;SDS011;38719;51.418;7.286;2022-07-06T09:54:20;4.70;;;1.70;;
52854;SDS011;38719;51.418;7.286;2022-07-06T09:56:48;4.05;;;1.60;;
52854;SDS011;38719;51.418;7.286;2022-07-06T09:59:18;4.57;;;1.50;;
52854;SDS011;38719;51.418;7.286;2022-07-06T10:01:48;3.28;;;1.20;;
52854;SDS011;38719;51.418;7.286;2022-07-06T10:04:18;2.83;;;1.40;;
52854;SDS011;38719;51.418;7.286;2022-07-06T10:06:47;4.45;;;1.55;;
52854;SDS011;38719;51.418;7.286;2022-07-06T10:09:18;1.83;;;1.40;;
52854;SDS011;38719;51.418;7.286;2022-07-06T10:11:47;4.68;;;1.45;;
52854;SDS011;38719;51.418;7.286;2022-07-06T10:14:17;4.50;;;1.60;;
52854;SDS011;38719;51.418;7.286;2022-07-06T10:16:46;5.35;;;1.85;;
52854;SDS011;38719;51.418;7.286;2022-07-06T10:19:15;3.17;;;1.30;;
52854;SDS011;38719;51.418;7.286;2022-07-06T10:21:44;4.63;;;1.55;;
52854;SDS011;38719;51.418;7.286;2022-07-06T10:24:12;3.90;;;1.60;;
52854;SDS011;38719;51.418;7.286;2022-07-06T10:26:42;4.38;;;1.60;;
52854;SDS011;38719;51.418;7.286;2022-07-06T10:29:10;2.85;;;1.58;;
52854;SDS011;38719;51.418;7.286;2022-07-06T10:31:38;2.72;;;1.48;;
52854;SDS011;38719;51.418;7.286;2022-07-06T10:34:10;2.55;;;1.50;;
52854;SDS011;38719;51.418;7.286;2022-07-06T10:36:40;5.18;;;1.50;;
52854;SDS011;38719;51.418;7.286;2022-07-06T10:39:08;3.67;;;1.52;;
52854;SDS011;38719;51.418;7.286;2022-07-06T10:41:56;7.43;;;1.60;;
52854;SDS011;38719;51.418;7.286;2022-07-06T10:44:24;2.72;;;1.50;;
52854;SDS011;38719;51.418;7.286;2022-07-06T10:46:52;6.57;;;1.60;;
52854;SDS011;38719;51.418;7.286;2022-07-06T10:49:21;3.13;;;1.73;;
52854;SDS011;38719;51.418;7.286;2022-07-06T10:52:10;7.00;;;2.05;;
52854;SDS011;38719;51.418;7.286;2022-07-06T10:54:38;5.78;;;1.60;;
52854;SDS011;38719;51.418;7.286;2022-07-06T10:57:09;5.13;;;1.60;;
52854;SDS011;38719;51.418;7.286;2022-07-06T10:59:41;2.85;;;1.42;;
52854;SDS011;38719;51.418;7.286;2022-07-06T11:02:29;3.40;;;1.77;;
52854;SDS011;38719;51.418;7.286;2022-07-06T11:05:09;3.28;;;1.60;;
52854;SDS011;38719;51.418;7.286;2022-07-06T11:07:48;3.42;;;1.55;;
52854;SDS011;38719;51.418;7.286;2022-07-06T11:10:16;3.47;;;1.52;;
52854;SDS011;38719;51.418;7.286;2022-07-06T11:12:45;3.55;;;1.67;;
52854;SDS011;38719;51.418;7.286;2022-07-06T11:15:13;4.97;;;2.05;;
52854;SDS011;38719;51.418;7.286;2022-07-06T11:18:18;3.75;;;1.75;;
52854;SDS011;38719;51.418;7.286;2022-07-06T11:23:46;6.13;;;1.83;;
52854;SDS011;38719;51.418;7.286;2022-07-06T11:26:15;6.28;;;1.65;;
52854;SDS011;38719;51.418;7.286;2022-07-06T11:28:46;3.03;;;1.70;;
52854;SDS011;38719;51.418;7.286;2022-07-06T11:31:15;3.80;;;1.58;;
52854;SDS011;38719;51.418;7.286;2022-07-06T11:33:44;7.18;;;1.90;;
52854;SDS011;38719;51.418;7.286;2022-07-06T11:36:14;2.80;;;1.60;;
52854;SDS011;38719;51.418;7.286;2022-07-06T11:38:43;2.13;;;1.75;;
52854;SDS011;38719;51.418;7.286;2022-07-06T11:41:12;3.33;;;1.55;;
52854;SDS011;38719;51.418;7.286;2022-07-06T11:43:41;2.63;;;1.45;;
52854;SDS011;38719;51.418;7.286;2022-07-06T11:46:22;4.28;;;1.50;;
52854;SDS011;38719;51.418;7.286;2022-07-06T11:48:52;2.45;;;1.42;;
52854;SDS011;38719;51.418;7.286;2022-07-06T11:51:21;2.28;;;1.40;;
52854;SDS011;38719;51.418;7.286;2022-07-06T11:53:50;3.00;;;1.35;;
52854;SDS011;38719;51.418;7.286;2022-07-06T11:56:21;2.42;;;1.15;;
52854;SDS011;38719;51.418;7.286;2022-07-06T11:58:52;2.20;;;1.77;;
52854;SDS011;38719;51.418;7.286;2022-07-06T12:01:22;4.57;;;2.05;;
52854;SDS011;38719;51.418;7.286;2022-07-06T12:03:51;2.65;;;1.65;;
52854;SDS011;38719;51.418;7.286;2022-07-06T12:06:19;2.75;;;1.83;;
52854;SDS011;38719;51.418;7.286;2022-07-06T12:08:49;4.32;;;1.58;;
52854;SDS011;38719;51.418;7.286;2022-07-06T12:11:18;3.55;;;1.80;;
52854;SDS011;38719;51.418;7.286;2022-07-06T12:13:47;4.43;;;1.80;;
52854;SDS011;38719;51.418;7.286;2022-07-06T12:16:16;4.88;;;1.90;;
52854;SDS011;38719;51.418;7.286;2022-07-06T12:18:45;4.22;;;1.63;;
52854;SDS011;38719;51.418;7.286;2022-07-06T12:21:15;3.03;;;1.58;;
52854;SDS011;38719;51.418;7.286;2022-07-06T12:23:47;7.43;;;2.20;;
52854;SDS011;38719;51.418;7.286;2022-07-06T12:26:16;6.90;;;1.80;;
52854;SDS011;38719;51.418;7.286;2022-07-06T12:28:45;3.33;;;1.70;;
52854;SDS011;38719;51.418;7.286;2022-07-06T12:31:32;9.25;;;2.10;;
52854;SDS011;38719;51.418;7.286;2022-07-06T12:34:02;12.30;;;3.10;;
52854;SDS011;38719;51.418;7.286;2022-07-06T12:36:30;3.75;;;1.98;;
52854;SDS011;38719;51.418;7.286;2022-07-06T12:38:58;6.35;;;2.00;;
52854;SDS011;38719;51.418;7.286;2022-07-06T12:41:27;4.78;;;2.00;;
52854;SDS011;38719;51.418;7.286;2022-07-06T12:44:00;4.45;;;1.98;;
52854;SDS011;38719;51.418;7.286;2022-07-06T12:46:32;8.73;;;2.00;;
52854;SDS011;38719;51.418;7.286;2022-07-06T12:49:03;7.03;;;1.95;;
52854;SDS011;38719;51.418;7.286;2022-07-06T12:54:39;4.30;;;2.20;;
52854;SDS011;38719;51.418;7.286;2022-07-06T12:57:10;2.80;;;1.88;;
52854;SDS011;38719;51.418;7.286;2022-07-06T12:59:40;5.40;;;1.95;;
52854;SDS011;38719;51.418;7.286;2022-07-06T13:02:10;4.30;;;1.70;;
52854;SDS011;38719;51.418;7.286;2022-07-06T13:04:55;3.42;;;2.00;;
52854;SDS011;38719;51.418;7.286;2022-07-06T13:07:24;4.95;;;1.98;;
52854;SDS011;38719;51.418;7.286;2022-07-06T13:09:52;3.75;;;1.80;;
52854;SDS011;38719;51.418;7.286;2022-07-06T13:12:20;2.97;;;1.90;;
52854;SDS011;38719;51.418;7.286;2022-07-06T13:14:49;5.18;;;1.70;;
52854;SDS011;38719;51.418;7.286;2022-07-06T13:17:16;5.03;;;1.67;;
52854;SDS011;38719;51.418;7.286;2022-07-06T13:19:44;7.10;;;1.80;;
52854;SDS011;38719;51.418;7.286;2022-07-06T13:22:14;3.67;;;1.55;;
52854;SDS011;38719;51.418;7.286;2022-07-06T13:24:41;2.95;;;1.35;;
52854;SDS011;38719;51.418;7.286;2022-07-06T13:27:09;11.93;;;1.60;;
52854;SDS011;38719;51.418;7.286;2022-07-06T13:29:37;2.67;;;1.30;;
52854;SDS011;38719;51.418;7.286;2022-07-06T13:32:05;4.55;;;1.52;;
52854;SDS011;38719;51.418;7.286;2022-07-06T13:34:34;6.20;;;1.50;;
52854;SDS011;38719;51.418;7.286;2022-07-06T13:37:03;5.53;;;2.13;;
52854;SDS011;38719;51.418;7.286;2022-07-06T13:39:33;7.57;;;1.98;;
52854;SDS011;38719;51.418;7.286;2022-07-06T13:42:01;3.78;;;1.90;;
52854;SDS011;38719;51.418;7.286;2022-07-06T13:44:29;5.38;;;1.60;;
52854;SDS011;38719;51.418;7.286;2022-07-06T13:46:56;3.90;;;1.80;;
52854;SDS011;38719;51.418;7.286;2022-07-06T13:49:24;3.40;;;1.65;;
52854;SDS011;38719;51.418;7.286;2022-07-06T13:51:57;1.75;;;1.60;;
52854;SDS011;38719;51.418;7.286;2022-07-06T13:54:29;3.67;;;1.70;;
52854;SDS011;38719;51.418;7.286;2022-07-06T13:56:59;6.00;;;1.85;;
52854;SDS011;38719;51.418;7.286;2022-07-06T13:59:29;4.47;;;1.88;;
52854;SDS011;38719;51.418;7.286;2022-07-06T14:01:57;6.05;;;2.30;;
52854;SDS011;38719;51.418;7.286;2022-07-06T14:04:25;3.80;;;1.98;;
52854;SDS011;38719;51.418;7.286;2022-07-06T14:06:52;4.05;;;1.98;;
52854;SDS011;38719;51.418;7.286;2022-07-06T14:09:20;5.03;;;2.72;;
52854;SDS011;38719;51.418;7.286;2022-07-06T14:11:47;4.60;;;1.90;;
52854;SDS011;38719;51.418;7.286;2022-07-06T14:14:16;3.55;;;2.00;;
52854;SDS011;38719;51.418;7.286;2022-07-06T14:16:44;6.00;;;1.90;;
52854;SDS011;38719;51.418;7.286;2022-07-06T14:19:11;4.75;;;1.90;;
52854;SDS011;38719;51.418;7.286;2022-07-06T14:21:46;3.10;;;1.67;;
52854;SDS011;38719;51.418;7.286;2022-07-06T14:24:14;3.38;;;1.60;;
52854;SDS011;38719;51.418;7.286;2022-07-06T14:26:42;3.85;;;1.60;;
52854;SDS011;38719;51.418;7.286;2022-07-06T14:29:09;3.40;;;1.60;;
52854;SDS011;38719;51.418;7.286;2022-07-06T14:31:38;4.35;;;1.95;;
52854;SDS011;38719;51.418;7.286;2022-07-06T14:34:06;2.88;;;1.40;;
52854;SDS011;38719;51.418;7.286;2022-07-06T14:36:33;3.45;;;1.20;;
52854;SDS011;38719;51.418;7.286;2022-07-06T14:39:04;4.53;;;1.63;;
52854;SDS011;38719;51.418;7.286;2022-07-06T14:41:31;4.10;;;1.52;;
52854;SDS011;38719;51.418;7.286;2022-07-06T14:43:59;5.15;;;1.50;;
52854;SDS011;38719;51.418;7.286;2022-07-06T14:46:26;3.15;;;1.45;;
52854;SDS011;38719;51.418;7.286;2022-07-06T14:48:55;2.60;;;1.98;;
52854;SDS011;38719;51.418;7.286;2022-07-06T14:51:23;2.15;;;1.70;;
52854;SDS011;38719;51.418;7.286;2022-07-06T14:53:51;4.72;;;2.00;;
52854;SDS011;38719;51.418;7.286;2022-07-06T14:56:19;4.25;;;1.90;;
52854;SDS011;38719;51.418;7.286;2022-07-06T14:58:47;3.03;;;2.00;;
52854;SDS011;38719;51.418;7.286;2022-07-06T15:01:34;2.90;;;1.77;;
52854;SDS011;38719;51.418;7.286;2022-07-06T15:04:03;5.45;;;1.70;;
52854;SDS011;38719;51.418;7.286;2022-07-06T15:06:31;11.82;;;1.77;;
52854;SDS011;38719;51.418;7.286;2022-07-06T15:09:19;5.07;;;1.90;;